sensor_id;sensor_type;location;lat;lon;timestamp;P1;durP1;ratioP1;P2;durP2;ratioP2
5867;SDS011;2960;49.142;7.768;2023-12-22T00:02:25;10.17;;;3.60;;
5867;SDS011;2960;49.142;7.768;2023-12-22T00:04:53;11.40;;;4.13;;
5867;SDS011;2960;49.142;7.768;2023-12-22T00:07:21;9.50;;;3.30;;
5867;SDS011;2960;49.142;7.768;2023-12-22T00:09:49;10.13;;;3.70;;
5867;SDS011;2960;49.142;7.768;2023-12-22T00:12:16;9.10;;;3.50;;
5867;SDS011;2960;49.142;7.768;2023-12-22T00:14:43;10.23;;;3.80;;
5867;SDS011;2960;49.142;7.768;2023-12-22T00:17:10;10.10;;;3.70;;
5867;SDS011;2960;49.142;7.768;2023-12-22T00:19:37;14.10;;;3.63;;
5867;SDS011;2960;49.142;7.768;2023-12-22T00:22:05;9.70;;;3.60;;
5867;SDS011;2960;49.142;7.768;2023-12-22T00:24:32;12.33;;;3.60;;
5867;SDS011;2960;49.142;7.768;2023-12-22T00:27:01;9.80;;;3.53;;
5867;SDS011;2960;49.142;7.768;2023-12-22T00:29:28;11.50;;;3.73;;
5867;SDS011;2960;49.142;7.768;2023-12-22T00:31:55;10.67;;;4.07;;
5867;SDS011;2960;49.142;7.768;2023-12-22T00:34:22;9.83;;;3.57;;
5867;SDS011;2960;49.142;7.768;2023-12-22T00:36:49;9.20;;;3.30;;
5867;SDS011;2960;49.142;7.768;2023-12-22T00:39:16;9.57;;;3.33;;
5867;SDS011;2960;49.142;7.768;2023-12-22T00:41:44;9.13;;;3.43;;
5867;SDS011;2960;49.142;7.768;2023-12-22T00:44:13;9.40;;;3.60;;
5867;SDS011;2960;49.142;7.768;2023-12-22T00:46:40;10.47;;;3.60;;
5867;SDS011;2960;49.142;7.768;2023-12-22T00:49:07;9.47;;;3.33;;
5867;SDS011;2960;49.142;7.768;2023-12-22T00:51:34;9.30;;;3.20;;
5867;SDS011;2960;49.142;7.768;2023-12-22T00:54:01;10.20;;;3.80;;
5867;SDS011;2960;49.142;7.768;2023-12-22T00:56:28;9.70;;;3.50;;
5867;SDS011;2960;49.142;7.768;2023-12-22T00:58:55;10.30;;;3.60;;
5867;SDS011;2960;49.142;7.768;2023-12-22T01:01:24;10.00;;;3.93;;
5867;SDS011;2960;49.142;7.768;2023-12-22T01:03:51;9.43;;;3.70;;
5867;SDS011;2960;49.142;7.768;2023-12-22T01:06:18;10.30;;;3.70;;
5867;SDS011;2960;49.142;7.768;2023-12-22T01:08:46;9.27;;;3.63;;
5867;SDS011;2960;49.142;7.768;2023-12-22T01:11:15;9.90;;;3.93;;
5867;SDS011;2960;49.142;7.768;2023-12-22T01:13:43;10.73;;;3.70;;
5867;SDS011;2960;49.142;7.768;2023-12-22T01:16:10;9.30;;;3.70;;
5867;SDS011;2960;49.142;7.768;2023-12-22T01:18:42;9.10;;;3.67;;
5867;SDS011;2960;49.142;7.768;2023-12-22T01:21:09;9.27;;;3.53;;
5867;SDS011;2960;49.142;7.768;2023-12-22T01:23:36;10.03;;;3.30;;
5867;SDS011;2960;49.142;7.768;2023-12-22T01:26:03;9.50;;;3.37;;
5867;SDS011;2960;49.142;7.768;2023-12-22T01:28:30;10.23;;;3.73;;
5867;SDS011;2960;49.142;7.768;2023-12-22T01:30:57;10.37;;;3.40;;
5867;SDS011;2960;49.142;7.768;2023-12-22T01:33:24;9.57;;;3.50;;
5867;SDS011;2960;49.142;7.768;2023-12-22T01:35:53;10.30;;;3.63;;
5867;SDS011;2960;49.142;7.768;2023-12-22T01:38:20;10.80;;;4.40;;
5867;SDS011;2960;49.142;7.768;2023-12-22T01:40:48;10.23;;;3.60;;
5867;SDS011;2960;49.142;7.768;2023-12-22T01:43:15;9.17;;;3.77;;
5867;SDS011;2960;49.142;7.768;2023-12-22T01:45:46;12.10;;;4.50;;
5867;SDS011;2960;49.142;7.768;2023-12-22T01:48:14;9.87;;;3.53;;
5867;SDS011;2960;49.142;7.768;2023-12-22T01:50:41;10.70;;;3.60;;
5867;SDS011;2960;49.142;7.768;2023-12-22T01:53:10;9.33;;;3.50;;
5867;SDS011;2960;49.142;7.768;2023-12-22T01:55:40;10.23;;;3.90;;
5867;SDS011;2960;49.142;7.768;2023-12-22T01:58:07;9.30;;;3.53;;
5867;SDS011;2960;49.142;7.768;2023-12-22T02:00:36;12.70;;;3.83;;
5867;SDS011;2960;49.142;7.768;2023-12-22T02:03:05;11.03;;;3.87;;
5867;SDS011;2960;49.142;7.768;2023-12-22T02:05:32;11.80;;;4.20;;
5867;SDS011;2960;49.142;7.768;2023-12-22T02:08:00;9.60;;;4.00;;
5867;SDS011;2960;49.142;7.768;2023-12-22T02:10:28;10.60;;;3.60;;
5867;SDS011;2960;49.142;7.768;2023-12-22T02:12:56;9.60;;;3.47;;
5867;SDS011;2960;49.142;7.768;2023-12-22T02:15:23;10.00;;;3.53;;
5867;SDS011;2960;49.142;7.768;2023-12-22T02:17:52;15.77;;;3.63;;
5867;SDS011;2960;49.142;7.768;2023-12-22T02:20:26;9.87;;;3.40;;
5867;SDS011;2960;49.142;7.768;2023-12-22T02:22:55;10.63;;;3.73;;
5867;SDS011;2960;49.142;7.768;2023-12-22T02:25:22;10.53;;;3.77;;
5867;SDS011;2960;49.142;7.768;2023-12-22T02:27:49;9.50;;;3.63;;
5867;SDS011;2960;49.142;7.768;2023-12-22T02:30:23;9.17;;;3.60;;
5867;SDS011;2960;49.142;7.768;2023-12-22T02:32:54;9.00;;;3.50;;
5867;SDS011;2960;49.142;7.768;2023-12-22T02:35:25;9.83;;;3.50;;
5867;SDS011;2960;49.142;7.768;2023-12-22T02:37:56;9.13;;;3.53;;
5867;SDS011;2960;49.142;7.768;2023-12-22T02:40:25;9.07;;;3.67;;
5867;SDS011;2960;49.142;7.768;2023-12-22T02:42:53;10.30;;;3.87;;
5867;SDS011;2960;49.142;7.768;2023-12-22T02:45:20;9.07;;;3.50;;
5867;SDS011;2960;49.142;7.768;2023-12-22T02:47:48;9.23;;;3.40;;
5867;SDS011;2960;49.142;7.768;2023-12-22T02:50:15;10.00;;;3.30;;
5867;SDS011;2960;49.142;7.768;2023-12-22T02:52:43;11.70;;;3.80;;
5867;SDS011;2960;49.142;7.768;2023-12-22T02:55:11;9.23;;;3.47;;
5867;SDS011;2960;49.142;7.768;2023-12-22T02:57:40;10.43;;;3.50;;
5867;SDS011;2960;49.142;7.768;2023-12-22T03:00:10;9.83;;;3.20;;
5867;SDS011;2960;49.142;7.768;2023-12-22T03:02:39;9.30;;;3.53;;
5867;SDS011;2960;49.142;7.768;2023-12-22T03:05:07;9.83;;;3.60;;
5867;SDS011;2960;49.142;7.768;2023-12-22T03:07:34;9.33;;;3.20;;
5867;SDS011;2960;49.142;7.768;2023-12-22T03:10:01;9.90;;;3.60;;
5867;SDS011;2960;49.142;7.768;2023-12-22T03:12:30;10.37;;;3.50;;
5867;SDS011;2960;49.142;7.768;2023-12-22T03:14:57;10.53;;;3.50;;
5867;SDS011;2960;49.142;7.768;2023-12-22T03:17:25;14.80;;;3.63;;
5867;SDS011;2960;49.142;7.768;2023-12-22T03:19:52;9.87;;;3.57;;
5867;SDS011;2960;49.142;7.768;2023-12-22T03:22:19;13.40;;;3.10;;
5867;SDS011;2960;49.142;7.768;2023-12-22T03:24:47;9.33;;;3.20;;
5867;SDS011;2960;49.142;7.768;2023-12-22T03:27:14;10.80;;;3.30;;
5867;SDS011;2960;49.142;7.768;2023-12-22T03:29:44;9.30;;;3.20;;
5867;SDS011;2960;49.142;7.768;2023-12-22T03:32:14;12.40;;;3.70;;
5867;SDS011;2960;49.142;7.768;2023-12-22T03:34:41;9.17;;;3.43;;
5867;SDS011;2960;49.142;7.768;2023-12-22T03:37:08;11.20;;;3.40;;
5867;SDS011;2960;49.142;7.768;2023-12-22T03:39:35;9.30;;;3.30;;
5867;SDS011;2960;49.142;7.768;2023-12-22T03:42:03;10.03;;;3.30;;
5867;SDS011;2960;49.142;7.768;2023-12-22T03:44:30;8.70;;;2.90;;
5867;SDS011;2960;49.142;7.768;2023-12-22T03:46:59;9.00;;;3.20;;
5867;SDS011;2960;49.142;7.768;2023-12-22T03:49:26;9.27;;;3.10;;
5867;SDS011;2960;49.142;7.768;2023-12-22T03:51:53;9.67;;;3.33;;
5867;SDS011;2960;49.142;7.768;2023-12-22T03:54:20;9.37;;;3.00;;
5867;SDS011;2960;49.142;7.768;2023-12-22T03:56:47;9.60;;;3.30;;
5867;SDS011;2960;49.142;7.768;2023-12-22T03:59:14;13.53;;;3.10;;
5867;SDS011;2960;49.142;7.768;2023-12-22T04:01:43;8.90;;;3.27;;
5867;SDS011;2960;49.142;7.768;2023-12-22T04:04:18;10.40;;;3.13;;
5867;SDS011;2960;49.142;7.768;2023-12-22T04:06:47;10.27;;;3.27;;
5867;SDS011;2960;49.142;7.768;2023-12-22T04:09:14;9.63;;;3.53;;
5867;SDS011;2960;49.142;7.768;2023-12-22T04:11:41;8.83;;;3.00;;
5867;SDS011;2960;49.142;7.768;2023-12-22T04:14:10;10.60;;;3.60;;
5867;SDS011;2960;49.142;7.768;2023-12-22T04:16:37;12.23;;;3.37;;
5867;SDS011;2960;49.142;7.768;2023-12-22T04:19:04;11.60;;;3.50;;
5867;SDS011;2960;49.142;7.768;2023-12-22T04:21:33;12.73;;;3.60;;
5867;SDS011;2960;49.142;7.768;2023-12-22T04:24:00;10.00;;;3.00;;
5867;SDS011;2960;49.142;7.768;2023-12-22T04:26:27;10.30;;;3.50;;
5867;SDS011;2960;49.142;7.768;2023-12-22T04:28:54;10.60;;;3.50;;
5867;SDS011;2960;49.142;7.768;2023-12-22T04:31:21;9.17;;;3.27;;
5867;SDS011;2960;49.142;7.768;2023-12-22T04:33:48;11.60;;;3.50;;
5867;SDS011;2960;49.142;7.768;2023-12-22T04:36:15;10.30;;;2.90;;
5867;SDS011;2960;49.142;7.768;2023-12-22T04:38:44;10.50;;;3.20;;
5867;SDS011;2960;49.142;7.768;2023-12-22T04:41:11;11.50;;;3.40;;
5867;SDS011;2960;49.142;7.768;2023-12-22T04:43:38;10.00;;;3.20;;
5867;SDS011;2960;49.142;7.768;2023-12-22T04:46:05;9.93;;;3.30;;
5867;SDS011;2960;49.142;7.768;2023-12-22T04:48:32;9.90;;;3.23;;
5867;SDS011;2960;49.142;7.768;2023-12-22T04:51:00;10.30;;;3.90;;
5867;SDS011;2960;49.142;7.768;2023-12-22T04:53:28;11.80;;;3.57;;
5867;SDS011;2960;49.142;7.768;2023-12-22T04:55:58;11.57;;;3.33;;
5867;SDS011;2960;49.142;7.768;2023-12-22T04:58:25;13.43;;;4.00;;
5867;SDS011;2960;49.142;7.768;2023-12-22T05:00:52;10.30;;;3.00;;
5867;SDS011;2960;49.142;7.768;2023-12-22T05:03:19;14.47;;;3.30;;
5867;SDS011;2960;49.142;7.768;2023-12-22T05:05:47;9.67;;;3.20;;
5867;SDS011;2960;49.142;7.768;2023-12-22T05:08:14;9.53;;;2.93;;
5867;SDS011;2960;49.142;7.768;2023-12-22T05:10:41;9.73;;;3.40;;
5867;SDS011;2960;49.142;7.768;2023-12-22T05:13:10;13.03;;;3.53;;
5867;SDS011;2960;49.142;7.768;2023-12-22T05:15:37;10.53;;;3.40;;
5867;SDS011;2960;49.142;7.768;2023-12-22T05:18:04;11.10;;;3.00;;
5867;SDS011;2960;49.142;7.768;2023-12-22T05:20:31;11.40;;;3.90;;
5867;SDS011;2960;49.142;7.768;2023-12-22T05:22:59;10.13;;;3.20;;
5867;SDS011;2960;49.142;7.768;2023-12-22T05:25:26;12.23;;;3.37;;
5867;SDS011;2960;49.142;7.768;2023-12-22T05:27:54;13.80;;;3.30;;
5867;SDS011;2960;49.142;7.768;2023-12-22T05:30:22;10.20;;;3.43;;
5867;SDS011;2960;49.142;7.768;2023-12-22T05:32:52;13.83;;;3.30;;
5867;SDS011;2960;49.142;7.768;2023-12-22T05:35:20;11.77;;;3.17;;
5867;SDS011;2960;49.142;7.768;2023-12-22T05:37:47;14.73;;;3.60;;
5867;SDS011;2960;49.142;7.768;2023-12-22T05:40:15;9.43;;;3.00;;
5867;SDS011;2960;49.142;7.768;2023-12-22T05:42:42;9.70;;;3.00;;
5867;SDS011;2960;49.142;7.768;2023-12-22T05:45:09;12.40;;;3.30;;
5867;SDS011;2960;49.142;7.768;2023-12-22T05:47:38;10.20;;;2.90;;
5867;SDS011;2960;49.142;7.768;2023-12-22T05:50:06;11.97;;;3.40;;
5867;SDS011;2960;49.142;7.768;2023-12-22T05:52:35;11.87;;;3.40;;
5867;SDS011;2960;49.142;7.768;2023-12-22T05:55:03;11.53;;;3.20;;
5867;SDS011;2960;49.142;7.768;2023-12-22T05:57:33;13.90;;;3.20;;
5867;SDS011;2960;49.142;7.768;2023-12-22T06:00:00;11.23;;;3.40;;
5867;SDS011;2960;49.142;7.768;2023-12-22T06:02:29;10.97;;;2.90;;
5867;SDS011;2960;49.142;7.768;2023-12-22T06:04:58;10.47;;;3.07;;
5867;SDS011;2960;49.142;7.768;2023-12-22T06:07:28;10.43;;;3.20;;
5867;SDS011;2960;49.142;7.768;2023-12-22T06:09:55;9.23;;;2.63;;
5867;SDS011;2960;49.142;7.768;2023-12-22T06:12:23;10.20;;;3.13;;
5867;SDS011;2960;49.142;7.768;2023-12-22T06:14:50;11.67;;;3.67;;
5867;SDS011;2960;49.142;7.768;2023-12-22T06:17:18;10.77;;;2.60;;
5867;SDS011;2960;49.142;7.768;2023-12-22T06:19:46;10.23;;;3.07;;
5867;SDS011;2960;49.142;7.768;2023-12-22T06:22:14;8.90;;;2.70;;
5867;SDS011;2960;49.142;7.768;2023-12-22T06:24:41;9.70;;;3.17;;
5867;SDS011;2960;49.142;7.768;2023-12-22T06:27:09;11.60;;;3.10;;
5867;SDS011;2960;49.142;7.768;2023-12-22T06:29:37;11.30;;;3.20;;
5867;SDS011;2960;49.142;7.768;2023-12-22T06:32:06;11.80;;;3.27;;
5867;SDS011;2960;49.142;7.768;2023-12-22T06:34:33;11.23;;;3.10;;
5867;SDS011;2960;49.142;7.768;2023-12-22T06:37:00;9.67;;;3.30;;
5867;SDS011;2960;49.142;7.768;2023-12-22T06:39:28;10.97;;;3.17;;
5867;SDS011;2960;49.142;7.768;2023-12-22T06:41:56;15.57;;;3.50;;
5867;SDS011;2960;49.142;7.768;2023-12-22T06:44:23;11.00;;;3.30;;
5867;SDS011;2960;49.142;7.768;2023-12-22T06:46:51;10.50;;;2.90;;
5867;SDS011;2960;49.142;7.768;2023-12-22T06:49:18;12.23;;;3.30;;
5867;SDS011;2960;49.142;7.768;2023-12-22T06:51:45;9.80;;;3.20;;
5867;SDS011;2960;49.142;7.768;2023-12-22T06:54:12;10.17;;;3.20;;
5867;SDS011;2960;49.142;7.768;2023-12-22T06:56:41;9.40;;;3.20;;
5867;SDS011;2960;49.142;7.768;2023-12-22T06:59:07;9.70;;;3.27;;
5867;SDS011;2960;49.142;7.768;2023-12-22T07:01:37;10.00;;;3.53;;
5867;SDS011;2960;49.142;7.768;2023-12-22T07:04:04;11.97;;;3.33;;
5867;SDS011;2960;49.142;7.768;2023-12-22T07:06:32;9.80;;;3.20;;
5867;SDS011;2960;49.142;7.768;2023-12-22T07:12:01;12.13;;;3.10;;
5867;SDS011;2960;49.142;7.768;2023-12-22T07:14:29;10.23;;;2.77;;
5867;SDS011;2960;49.142;7.768;2023-12-22T07:17:00;11.70;;;3.00;;
5867;SDS011;2960;49.142;7.768;2023-12-22T07:19:28;11.57;;;3.30;;
5867;SDS011;2960;49.142;7.768;2023-12-22T07:21:55;16.10;;;3.47;;
5867;SDS011;2960;49.142;7.768;2023-12-22T07:24:22;9.90;;;2.97;;
5867;SDS011;2960;49.142;7.768;2023-12-22T07:26:49;11.17;;;2.77;;
5867;SDS011;2960;49.142;7.768;2023-12-22T07:29:18;9.53;;;2.70;;
5867;SDS011;2960;49.142;7.768;2023-12-22T07:31:45;9.60;;;2.93;;
5867;SDS011;2960;49.142;7.768;2023-12-22T07:34:12;11.90;;;3.23;;
5867;SDS011;2960;49.142;7.768;2023-12-22T07:36:40;9.73;;;2.90;;
5867;SDS011;2960;49.142;7.768;2023-12-22T07:39:07;9.03;;;2.97;;
5867;SDS011;2960;49.142;7.768;2023-12-22T07:41:35;11.10;;;3.20;;
5867;SDS011;2960;49.142;7.768;2023-12-22T07:44:03;15.13;;;3.13;;
5867;SDS011;2960;49.142;7.768;2023-12-22T07:46:32;9.97;;;3.17;;
5867;SDS011;2960;49.142;7.768;2023-12-22T07:48:59;16.63;;;3.97;;
5867;SDS011;2960;49.142;7.768;2023-12-22T07:51:26;10.40;;;3.17;;
5867;SDS011;2960;49.142;7.768;2023-12-22T07:53:53;15.07;;;3.70;;
5867;SDS011;2960;49.142;7.768;2023-12-22T07:56:20;12.60;;;3.50;;
5867;SDS011;2960;49.142;7.768;2023-12-22T07:58:47;12.10;;;3.80;;
5867;SDS011;2960;49.142;7.768;2023-12-22T08:01:15;18.67;;;4.00;;
5867;SDS011;2960;49.142;7.768;2023-12-22T08:03:43;12.13;;;3.97;;
5867;SDS011;2960;49.142;7.768;2023-12-22T08:06:13;13.47;;;3.50;;
5867;SDS011;2960;49.142;7.768;2023-12-22T08:08:40;12.23;;;3.67;;
5867;SDS011;2960;49.142;7.768;2023-12-22T08:11:07;13.07;;;3.73;;
5867;SDS011;2960;49.142;7.768;2023-12-22T08:13:34;10.00;;;3.50;;
5867;SDS011;2960;49.142;7.768;2023-12-22T08:16:03;11.03;;;3.60;;
5867;SDS011;2960;49.142;7.768;2023-12-22T08:18:31;10.70;;;4.00;;
5867;SDS011;2960;49.142;7.768;2023-12-22T08:20:59;10.30;;;3.90;;
5867;SDS011;2960;49.142;7.768;2023-12-22T08:23:26;12.63;;;3.97;;
5867;SDS011;2960;49.142;7.768;2023-12-22T08:25:54;12.53;;;3.90;;
5867;SDS011;2960;49.142;7.768;2023-12-22T08:28:23;11.17;;;4.50;;
5867;SDS011;2960;49.142;7.768;2023-12-22T08:30:53;13.83;;;4.10;;
5867;SDS011;2960;49.142;7.768;2023-12-22T08:33:20;10.80;;;3.77;;
5867;SDS011;2960;49.142;7.768;2023-12-22T08:35:47;15.40;;;3.70;;
5867;SDS011;2960;49.142;7.768;2023-12-22T08:38:15;13.20;;;4.63;;
5867;SDS011;2960;49.142;7.768;2023-12-22T08:40:42;12.80;;;3.87;;
5867;SDS011;2960;49.142;7.768;2023-12-22T08:43:10;14.43;;;4.37;;
5867;SDS011;2960;49.142;7.768;2023-12-22T08:45:37;12.40;;;3.90;;
5867;SDS011;2960;49.142;7.768;2023-12-22T08:48:05;14.03;;;3.90;;
5867;SDS011;2960;49.142;7.768;2023-12-22T08:50:34;12.83;;;3.93;;
5867;SDS011;2960;49.142;7.768;2023-12-22T08:53:01;16.40;;;4.37;;
5867;SDS011;2960;49.142;7.768;2023-12-22T08:55:30;13.83;;;4.37;;
5867;SDS011;2960;49.142;7.768;2023-12-22T08:57:57;19.90;;;4.67;;
5867;SDS011;2960;49.142;7.768;2023-12-22T09:00:24;14.10;;;4.13;;
5867;SDS011;2960;49.142;7.768;2023-12-22T09:02:52;10.07;;;3.80;;
5867;SDS011;2960;49.142;7.768;2023-12-22T09:05:19;12.50;;;3.80;;
5867;SDS011;2960;49.142;7.768;2023-12-22T09:07:48;11.70;;;4.43;;
5867;SDS011;2960;49.142;7.768;2023-12-22T09:10:15;15.53;;;4.13;;
5867;SDS011;2960;49.142;7.768;2023-12-22T09:12:46;15.63;;;3.90;;
5867;SDS011;2960;49.142;7.768;2023-12-22T09:15:13;18.23;;;4.50;;
5867;SDS011;2960;49.142;7.768;2023-12-22T09:17:41;14.97;;;4.33;;
5867;SDS011;2960;49.142;7.768;2023-12-22T09:20:09;11.53;;;3.70;;
5867;SDS011;2960;49.142;7.768;2023-12-22T09:22:36;12.80;;;3.60;;
5867;SDS011;2960;49.142;7.768;2023-12-22T09:25:04;11.70;;;4.33;;
5867;SDS011;2960;49.142;7.768;2023-12-22T09:27:33;16.67;;;4.47;;
5867;SDS011;2960;49.142;7.768;2023-12-22T09:30:02;14.63;;;4.20;;
5867;SDS011;2960;49.142;7.768;2023-12-22T09:32:31;13.77;;;4.27;;
5867;SDS011;2960;49.142;7.768;2023-12-22T09:35:00;13.03;;;4.00;;
5867;SDS011;2960;49.142;7.768;2023-12-22T09:37:28;15.50;;;4.57;;
5867;SDS011;2960;49.142;7.768;2023-12-22T09:39:55;15.97;;;4.40;;
5867;SDS011;2960;49.142;7.768;2023-12-22T09:42:22;11.40;;;3.73;;
5867;SDS011;2960;49.142;7.768;2023-12-22T09:44:52;13.93;;;4.50;;
5867;SDS011;2960;49.142;7.768;2023-12-22T09:47:21;11.03;;;4.27;;
5867;SDS011;2960;49.142;7.768;2023-12-22T09:49:50;21.07;;;4.03;;
5867;SDS011;2960;49.142;7.768;2023-12-22T09:52:20;10.70;;;4.20;;
5867;SDS011;2960;49.142;7.768;2023-12-22T09:54:47;14.60;;;4.27;;
5867;SDS011;2960;49.142;7.768;2023-12-22T09:57:15;16.93;;;4.23;;
5867;SDS011;2960;49.142;7.768;2023-12-22T09:59:43;14.67;;;4.90;;
5867;SDS011;2960;49.142;7.768;2023-12-22T10:02:10;12.47;;;4.10;;
5867;SDS011;2960;49.142;7.768;2023-12-22T10:04:39;11.90;;;4.20;;
5867;SDS011;2960;49.142;7.768;2023-12-22T10:07:06;11.83;;;4.43;;
5867;SDS011;2960;49.142;7.768;2023-12-22T10:09:36;14.80;;;3.83;;
5867;SDS011;2960;49.142;7.768;2023-12-22T10:12:05;15.47;;;4.97;;
5867;SDS011;2960;49.142;7.768;2023-12-22T10:14:36;11.10;;;3.90;;
5867;SDS011;2960;49.142;7.768;2023-12-22T10:17:03;12.30;;;3.90;;
5867;SDS011;2960;49.142;7.768;2023-12-22T10:19:31;11.20;;;3.80;;
5867;SDS011;2960;49.142;7.768;2023-12-22T10:21:59;11.37;;;3.97;;
5867;SDS011;2960;49.142;7.768;2023-12-22T10:24:39;10.80;;;4.00;;
5867;SDS011;2960;49.142;7.768;2023-12-22T10:27:12;14.03;;;4.13;;
5867;SDS011;2960;49.142;7.768;2023-12-22T10:29:41;10.53;;;4.50;;
5867;SDS011;2960;49.142;7.768;2023-12-22T10:32:08;13.87;;;4.30;;
5867;SDS011;2960;49.142;7.768;2023-12-22T10:34:36;11.07;;;3.90;;
5867;SDS011;2960;49.142;7.768;2023-12-22T10:37:05;10.67;;;3.40;;
5867;SDS011;2960;49.142;7.768;2023-12-22T10:39:32;10.73;;;3.70;;
5867;SDS011;2960;49.142;7.768;2023-12-22T10:42:02;12.50;;;3.83;;
5867;SDS011;2960;49.142;7.768;2023-12-22T10:44:30;10.47;;;3.30;;
5867;SDS011;2960;49.142;7.768;2023-12-22T10:46:58;12.53;;;4.07;;
5867;SDS011;2960;49.142;7.768;2023-12-22T10:49:27;11.00;;;3.40;;
5867;SDS011;2960;49.142;7.768;2023-12-22T10:51:55;10.57;;;3.13;;
5867;SDS011;2960;49.142;7.768;2023-12-22T10:54:23;10.60;;;3.20;;
5867;SDS011;2960;49.142;7.768;2023-12-22T10:56:51;10.10;;;3.60;;
5867;SDS011;2960;49.142;7.768;2023-12-22T10:59:18;14.70;;;3.93;;
5867;SDS011;2960;49.142;7.768;2023-12-22T11:01:51;10.33;;;3.17;;
5867;SDS011;2960;49.142;7.768;2023-12-22T11:04:20;9.70;;;3.03;;
5867;SDS011;2960;49.142;7.768;2023-12-22T11:06:49;10.70;;;3.50;;
5867;SDS011;2960;49.142;7.768;2023-12-22T11:09:21;10.93;;;3.40;;
5867;SDS011;2960;49.142;7.768;2023-12-22T11:11:51;10.33;;;3.07;;
5867;SDS011;2960;49.142;7.768;2023-12-22T11:14:19;9.97;;;2.97;;
5867;SDS011;2960;49.142;7.768;2023-12-22T11:16:48;9.67;;;3.20;;
5867;SDS011;2960;49.142;7.768;2023-12-22T11:19:16;9.50;;;2.83;;
5867;SDS011;2960;49.142;7.768;2023-12-22T11:21:45;8.53;;;2.97;;
5867;SDS011;2960;49.142;7.768;2023-12-22T11:24:16;8.80;;;3.00;;
5867;SDS011;2960;49.142;7.768;2023-12-22T11:26:46;9.40;;;2.90;;
5867;SDS011;2960;49.142;7.768;2023-12-22T11:29:16;9.37;;;2.53;;
5867;SDS011;2960;49.142;7.768;2023-12-22T11:31:49;9.30;;;2.97;;
5867;SDS011;2960;49.142;7.768;2023-12-22T11:34:17;11.60;;;2.93;;
5867;SDS011;2960;49.142;7.768;2023-12-22T11:36:46;9.37;;;2.70;;
5867;SDS011;2960;49.142;7.768;2023-12-22T11:39:15;8.33;;;2.63;;
5867;SDS011;2960;49.142;7.768;2023-12-22T11:41:42;9.20;;;2.80;;
5867;SDS011;2960;49.142;7.768;2023-12-22T11:44:12;8.67;;;2.73;;
5867;SDS011;2960;49.142;7.768;2023-12-22T11:46:40;8.80;;;2.90;;
5867;SDS011;2960;49.142;7.768;2023-12-22T11:49:07;8.30;;;2.87;;
5867;SDS011;2960;49.142;7.768;2023-12-22T11:51:34;8.37;;;2.73;;
5867;SDS011;2960;49.142;7.768;2023-12-22T11:54:01;8.20;;;2.60;;
5867;SDS011;2960;49.142;7.768;2023-12-22T11:56:29;9.30;;;3.10;;
5867;SDS011;2960;49.142;7.768;2023-12-22T11:58:55;8.30;;;2.37;;
5867;SDS011;2960;49.142;7.768;2023-12-22T12:01:25;8.60;;;2.90;;
5867;SDS011;2960;49.142;7.768;2023-12-22T12:03:57;8.20;;;2.47;;
5867;SDS011;2960;49.142;7.768;2023-12-22T12:06:33;8.40;;;2.73;;
5867;SDS011;2960;49.142;7.768;2023-12-22T12:09:04;8.50;;;2.50;;
5867;SDS011;2960;49.142;7.768;2023-12-22T12:14:40;8.50;;;2.60;;
5867;SDS011;2960;49.142;7.768;2023-12-22T12:17:11;13.40;;;3.07;;
5867;SDS011;2960;49.142;7.768;2023-12-22T12:19:43;9.00;;;2.80;;
5867;SDS011;2960;49.142;7.768;2023-12-22T12:22:11;8.40;;;2.50;;
5867;SDS011;2960;49.142;7.768;2023-12-22T12:24:38;8.40;;;2.70;;
5867;SDS011;2960;49.142;7.768;2023-12-22T12:27:07;9.87;;;2.70;;
5867;SDS011;2960;49.142;7.768;2023-12-22T12:29:34;8.23;;;2.40;;
5867;SDS011;2960;49.142;7.768;2023-12-22T12:32:02;9.00;;;2.50;;
5867;SDS011;2960;49.142;7.768;2023-12-22T12:34:32;10.47;;;3.00;;
5867;SDS011;2960;49.142;7.768;2023-12-22T12:36:59;9.03;;;2.90;;
5867;SDS011;2960;49.142;7.768;2023-12-22T12:39:29;8.90;;;2.70;;
5867;SDS011;2960;49.142;7.768;2023-12-22T12:41:57;8.30;;;2.50;;
5867;SDS011;2960;49.142;7.768;2023-12-22T12:44:27;8.70;;;2.93;;
5867;SDS011;2960;49.142;7.768;2023-12-22T12:46:57;8.80;;;2.87;;
5867;SDS011;2960;49.142;7.768;2023-12-22T12:49:25;9.57;;;2.70;;
5867;SDS011;2960;49.142;7.768;2023-12-22T12:51:56;8.40;;;2.80;;
5867;SDS011;2960;49.142;7.768;2023-12-22T12:54:23;8.53;;;2.87;;
5867;SDS011;2960;49.142;7.768;2023-12-22T12:56:50;9.00;;;3.13;;
5867;SDS011;2960;49.142;7.768;2023-12-22T12:59:17;8.60;;;2.90;;
5867;SDS011;2960;49.142;7.768;2023-12-22T13:01:45;8.43;;;2.57;;
5867;SDS011;2960;49.142;7.768;2023-12-22T13:04:13;8.90;;;2.57;;
5867;SDS011;2960;49.142;7.768;2023-12-22T13:06:44;8.80;;;2.70;;
5867;SDS011;2960;49.142;7.768;2023-12-22T13:09:13;8.87;;;2.60;;
5867;SDS011;2960;49.142;7.768;2023-12-22T13:11:42;8.37;;;2.60;;
5867;SDS011;2960;49.142;7.768;2023-12-22T13:14:11;9.50;;;2.90;;
5867;SDS011;2960;49.142;7.768;2023-12-22T13:16:39;8.50;;;2.60;;
5867;SDS011;2960;49.142;7.768;2023-12-22T13:19:06;8.50;;;2.63;;
5867;SDS011;2960;49.142;7.768;2023-12-22T13:21:33;8.50;;;2.63;;
5867;SDS011;2960;49.142;7.768;2023-12-22T13:24:07;9.87;;;2.33;;
5867;SDS011;2960;49.142;7.768;2023-12-22T13:26:37;8.50;;;2.73;;
5867;SDS011;2960;49.142;7.768;2023-12-22T13:29:05;9.00;;;2.83;;
5867;SDS011;2960;49.142;7.768;2023-12-22T13:31:33;8.63;;;2.60;;
5867;SDS011;2960;49.142;7.768;2023-12-22T13:34:03;8.50;;;2.40;;
5867;SDS011;2960;49.142;7.768;2023-12-22T13:36:34;8.60;;;2.53;;
5867;SDS011;2960;49.142;7.768;2023-12-22T13:39:03;8.80;;;2.63;;
5867;SDS011;2960;49.142;7.768;2023-12-22T13:41:31;8.43;;;2.37;;
5867;SDS011;2960;49.142;7.768;2023-12-22T13:44:03;8.40;;;2.67;;
5867;SDS011;2960;49.142;7.768;2023-12-22T13:46:31;8.57;;;2.87;;
5867;SDS011;2960;49.142;7.768;2023-12-22T13:49:00;8.63;;;2.80;;
5867;SDS011;2960;49.142;7.768;2023-12-22T13:51:37;8.50;;;2.73;;
5867;SDS011;2960;49.142;7.768;2023-12-22T13:54:06;8.43;;;2.90;;
5867;SDS011;2960;49.142;7.768;2023-12-22T13:56:33;8.50;;;2.77;;
5867;SDS011;2960;49.142;7.768;2023-12-22T13:59:02;8.80;;;3.03;;
5867;SDS011;2960;49.142;7.768;2023-12-22T14:01:30;8.67;;;2.80;;
5867;SDS011;2960;49.142;7.768;2023-12-22T14:03:57;8.60;;;2.60;;
5867;SDS011;2960;49.142;7.768;2023-12-22T14:06:25;8.67;;;2.77;;
5867;SDS011;2960;49.142;7.768;2023-12-22T14:08:53;8.60;;;2.60;;
5867;SDS011;2960;49.142;7.768;2023-12-22T14:11:20;8.70;;;2.83;;
5867;SDS011;2960;49.142;7.768;2023-12-22T14:13:47;13.00;;;2.70;;
5867;SDS011;2960;49.142;7.768;2023-12-22T14:16:16;8.73;;;2.60;;
5867;SDS011;2960;49.142;7.768;2023-12-22T14:18:43;8.67;;;2.70;;
5867;SDS011;2960;49.142;7.768;2023-12-22T14:21:13;8.70;;;2.80;;
5867;SDS011;2960;49.142;7.768;2023-12-22T14:23:41;8.57;;;3.00;;
5867;SDS011;2960;49.142;7.768;2023-12-22T14:26:08;8.77;;;3.00;;
5867;SDS011;2960;49.142;7.768;2023-12-22T14:28:35;8.57;;;2.70;;
5867;SDS011;2960;49.142;7.768;2023-12-22T14:31:02;8.73;;;2.80;;
5867;SDS011;2960;49.142;7.768;2023-12-22T14:33:31;8.80;;;3.00;;
5867;SDS011;2960;49.142;7.768;2023-12-22T14:35:58;8.80;;;3.00;;
5867;SDS011;2960;49.142;7.768;2023-12-22T14:38:24;8.70;;;3.00;;
5867;SDS011;2960;49.142;7.768;2023-12-22T14:40:51;9.03;;;2.80;;
5867;SDS011;2960;49.142;7.768;2023-12-22T14:43:18;8.97;;;2.70;;
5867;SDS011;2960;49.142;7.768;2023-12-22T14:45:45;8.73;;;2.80;;
5867;SDS011;2960;49.142;7.768;2023-12-22T14:48:12;8.90;;;2.80;;
5867;SDS011;2960;49.142;7.768;2023-12-22T14:50:41;9.97;;;2.90;;
5867;SDS011;2960;49.142;7.768;2023-12-22T14:53:08;9.67;;;3.30;;
5867;SDS011;2960;49.142;7.768;2023-12-22T14:55:37;8.57;;;2.90;;
5867;SDS011;2960;49.142;7.768;2023-12-22T14:58:04;9.30;;;2.70;;
5867;SDS011;2960;49.142;7.768;2023-12-22T15:00:32;10.10;;;3.03;;
5867;SDS011;2960;49.142;7.768;2023-12-22T15:02:59;8.80;;;3.10;;
5867;SDS011;2960;49.142;7.768;2023-12-22T15:05:27;8.90;;;2.83;;
5867;SDS011;2960;49.142;7.768;2023-12-22T15:07:56;9.60;;;3.40;;
5867;SDS011;2960;49.142;7.768;2023-12-22T15:10:23;8.50;;;2.87;;
5867;SDS011;2960;49.142;7.768;2023-12-22T15:12:50;8.67;;;3.00;;
5867;SDS011;2960;49.142;7.768;2023-12-22T15:15:17;9.10;;;3.20;;
5867;SDS011;2960;49.142;7.768;2023-12-22T15:17:45;8.80;;;3.13;;
5867;SDS011;2960;49.142;7.768;2023-12-22T15:20:12;9.97;;;3.10;;